sensor_id;sensor_type;location;lat;lon;timestamp;temperature;humidity
39665;DHT22;26679;50.872;4.332;2023-05-14T00:01:16;15.70;99.90
39665;DHT22;26679;50.872;4.332;2023-05-14T00:03:41;15.60;99.90
39665;DHT22;26679;50.872;4.332;2023-05-14T00:06:07;15.60;99.90
39665;DHT22;26679;50.872;4.332;2023-05-14T00:08:33;15.60;99.90
39665;DHT22;26679;50.872;4.332;2023-05-14T00:10:59;15.60;99.90
39665;DHT22;26679;50.872;4.332;2023-05-14T00:13:24;15.60;99.90
39665;DHT22;26679;50.872;4.332;2023-05-14T00:15:50;15.80;99.90
39665;DHT22;26679;50.872;4.332;2023-05-14T00:18:16;15.80;99.90
39665;DHT22;26679;50.872;4.332;2023-05-14T00:20:41;15.70;99.90
39665;DHT22;26679;50.872;4.332;2023-05-14T00:23:07;15.70;99.90
39665;DHT22;26679;50.872;4.332;2023-05-14T00:25:32;15.80;99.90
39665;DHT22;26679;50.872;4.332;2023-05-14T00:27:58;15.80;99.90
39665;DHT22;26679;50.872;4.332;2023-05-14T00:30:23;15.70;99.90
39665;DHT22;26679;50.872;4.332;2023-05-14T00:32:49;15.60;99.90
39665;DHT22;26679;50.872;4.332;2023-05-14T00:35:14;15.60;99.90
39665;DHT22;26679;50.872;4.332;2023-05-14T00:37:40;15.60;99.90
39665;DHT22;26679;50.872;4.332;2023-05-14T00:40:05;15.50;99.90
39665;DHT22;26679;50.872;4.332;2023-05-14T00:42:33;15.50;99.90
39665;DHT22;26679;50.872;4.332;2023-05-14T00:44:58;15.50;99.90
39665;DHT22;26679;50.872;4.332;2023-05-14T00:47:24;15.50;99.90
39665;DHT22;26679;50.872;4.332;2023-05-14T00:49:49;15.40;99.90
39665;DHT22;26679;50.872;4.332;2023-05-14T00:52:15;15.40;99.90
39665;DHT22;26679;50.872;4.332;2023-05-14T00:54:41;15.40;99.90
39665;DHT22;26679;50.872;4.332;2023-05-14T00:57:06;15.30;99.90
39665;DHT22;26679;50.872;4.332;2023-05-14T00:59:32;15.40;99.90
39665;DHT22;26679;50.872;4.332;2023-05-14T01:01:57;15.40;99.90
39665;DHT22;26679;50.872;4.332;2023-05-14T01:04:23;15.40;99.90
39665;DHT22;26679;50.872;4.332;2023-05-14T01:11:54;15.50;99.90
39665;DHT22;26679;50.872;4.332;2023-05-14T01:16:52;15.50;99.90
39665;DHT22;26679;50.872;4.332;2023-05-14T01:21:55;15.60;99.90
39665;DHT22;26679;50.872;4.332;2023-05-14T01:24:21;15.50;99.90
39665;DHT22;26679;50.872;4.332;2023-05-14T01:26:47;15.40;99.90
39665;DHT22;26679;50.872;4.332;2023-05-14T01:31:42;15.40;99.90
39665;DHT22;26679;50.872;4.332;2023-05-14T01:34:08;15.40;99.90
39665;DHT22;26679;50.872;4.332;2023-05-14T01:36:35;15.40;99.90
39665;DHT22;26679;50.872;4.332;2023-05-14T01:39:01;15.40;99.90
39665;DHT22;26679;50.872;4.332;2023-05-14T01:41:28;15.40;99.90
39665;DHT22;26679;50.872;4.332;2023-05-14T01:43:53;15.30;99.90
39665;DHT22;26679;50.872;4.332;2023-05-14T01:46:19;15.30;99.90
39665;DHT22;26679;50.872;4.332;2023-05-14T01:48:45;15.30;99.90
39665;DHT22;26679;50.872;4.332;2023-05-14T01:51:10;15.30;99.90
39665;DHT22;26679;50.872;4.332;2023-05-14T01:53:39;15.40;99.90
39665;DHT22;26679;50.872;4.332;2023-05-14T01:56:04;15.30;99.90
39665;DHT22;26679;50.872;4.332;2023-05-14T01:58:30;15.10;99.90
39665;DHT22;26679;50.872;4.332;2023-05-14T02:00:55;15.10;99.90
39665;DHT22;26679;50.872;4.332;2023-05-14T02:03:21;15.10;99.90
39665;DHT22;26679;50.872;4.332;2023-05-14T02:05:46;15.00;99.90
39665;DHT22;26679;50.872;4.332;2023-05-14T02:08:12;15.00;99.90
39665;DHT22;26679;50.872;4.332;2023-05-14T02:10:37;15.10;99.90
39665;DHT22;26679;50.872;4.332;2023-05-14T02:13:03;15.10;99.90
39665;DHT22;26679;50.872;4.332;2023-05-14T02:15:28;15.10;99.90
39665;DHT22;26679;50.872;4.332;2023-05-14T02:17:54;15.10;99.90
39665;DHT22;26679;50.872;4.332;2023-05-14T02:20:19;15.20;99.90
39665;DHT22;26679;50.872;4.332;2023-05-14T02:22:45;15.30;99.90
39665;DHT22;26679;50.872;4.332;2023-05-14T02:25:10;15.10;99.90
39665;DHT22;26679;50.872;4.332;2023-05-14T02:27:36;15.00;99.90
39665;DHT22;26679;50.872;4.332;2023-05-14T02:30:01;15.00;99.90
39665;DHT22;26679;50.872;4.332;2023-05-14T02:32:27;15.10;99.90
39665;DHT22;26679;50.872;4.332;2023-05-14T02:34:52;15.20;99.90
39665;DHT22;26679;50.872;4.332;2023-05-14T02:37:18;15.20;99.90
39665;DHT22;26679;50.872;4.332;2023-05-14T02:39:43;15.20;99.90
39665;DHT22;26679;50.872;4.332;2023-05-14T02:42:09;15.30;99.90
39665;DHT22;26679;50.872;4.332;2023-05-14T02:44:34;15.20;99.90
39665;DHT22;26679;50.872;4.332;2023-05-14T02:47:00;15.20;99.90
39665;DHT22;26679;50.872;4.332;2023-05-14T02:49:26;15.10;99.90
39665;DHT22;26679;50.872;4.332;2023-05-14T02:51:51;15.20;99.90
39665;DHT22;26679;50.872;4.332;2023-05-14T02:54:18;15.00;99.90
39665;DHT22;26679;50.872;4.332;2023-05-14T02:56:44;15.10;99.90
39665;DHT22;26679;50.872;4.332;2023-05-14T02:59:09;15.10;99.90
39665;DHT22;26679;50.872;4.332;2023-05-14T03:01:35;15.10;99.90
39665;DHT22;26679;50.872;4.332;2023-05-14T03:04:00;15.10;99.90
39665;DHT22;26679;50.872;4.332;2023-05-14T03:06:26;15.20;99.90
39665;DHT22;26679;50.872;4.332;2023-05-14T03:08:51;15.20;99.90
39665;DHT22;26679;50.872;4.332;2023-05-14T03:11:17;15.20;99.90
39665;DHT22;26679;50.872;4.332;2023-05-14T03:13:42;15.10;99.90
39665;DHT22;26679;50.872;4.332;2023-05-14T03:16:08;15.20;99.90
39665;DHT22;26679;50.872;4.332;2023-05-14T03:18:33;15.10;99.90
39665;DHT22;26679;50.872;4.332;2023-05-14T03:21:00;15.10;99.90
39665;DHT22;26679;50.872;4.332;2023-05-14T03:23:26;15.10;99.90
39665;DHT22;26679;50.872;4.332;2023-05-14T03:25:52;15.20;99.90
39665;DHT22;26679;50.872;4.332;2023-05-14T03:28:17;15.10;99.90
39665;DHT22;26679;50.872;4.332;2023-05-14T03:30:43;15.10;99.90
39665;DHT22;26679;50.872;4.332;2023-05-14T03:33:08;15.10;99.90
39665;DHT22;26679;50.872;4.332;2023-05-14T03:35:34;15.10;99.90
39665;DHT22;26679;50.872;4.332;2023-05-14T03:38:00;15.00;99.90
39665;DHT22;26679;50.872;4.332;2023-05-14T03:40:25;14.90;99.90
39665;DHT22;26679;50.872;4.332;2023-05-14T03:42:51;15.00;99.90
39665;DHT22;26679;50.872;4.332;2023-05-14T03:45:16;15.00;99.90
39665;DHT22;26679;50.872;4.332;2023-05-14T03:47:42;15.10;99.90
39665;DHT22;26679;50.872;4.332;2023-05-14T03:50:07;15.20;99.90
39665;DHT22;26679;50.872;4.332;2023-05-14T03:52:33;15.20;99.90
39665;DHT22;26679;50.872;4.332;2023-05-14T03:54:58;15.20;99.90
39665;DHT22;26679;50.872;4.332;2023-05-14T03:57:24;15.20;99.90
39665;DHT22;26679;50.872;4.332;2023-05-14T03:59:49;15.10;99.90
39665;DHT22;26679;50.872;4.332;2023-05-14T04:02:15;14.90;99.90
39665;DHT22;26679;50.872;4.332;2023-05-14T04:04:40;15.00;99.90
39665;DHT22;26679;50.872;4.332;2023-05-14T04:07:06;15.00;99.90
39665;DHT22;26679;50.872;4.332;2023-05-14T04:09:33;14.90;99.90
39665;DHT22;26679;50.872;4.332;2023-05-14T04:11:58;14.90;99.90
39665;DHT22;26679;50.872;4.332;2023-05-14T04:14:24;14.90;99.90
39665;DHT22;26679;50.872;4.332;2023-05-14T04:16:49;15.00;99.90
39665;DHT22;26679;50.872;4.332;2023-05-14T04:19:15;14.90;99.90
39665;DHT22;26679;50.872;4.332;2023-05-14T04:21:40;14.90;99.90
39665;DHT22;26679;50.872;4.332;2023-05-14T04:24:06;14.90;99.90
39665;DHT22;26679;50.872;4.332;2023-05-14T04:26:31;14.90;99.90
39665;DHT22;26679;50.872;4.332;2023-05-14T04:28:57;14.90;99.90
39665;DHT22;26679;50.872;4.332;2023-05-14T04:31:27;14.90;99.90
39665;DHT22;26679;50.872;4.332;2023-05-14T04:33:52;15.00;99.90
39665;DHT22;26679;50.872;4.332;2023-05-14T04:36:18;15.10;99.90
39665;DHT22;26679;50.872;4.332;2023-05-14T04:38:43;15.10;99.90
39665;DHT22;26679;50.872;4.332;2023-05-14T04:41:09;15.20;99.90
39665;DHT22;26679;50.872;4.332;2023-05-14T04:43:34;15.30;99.90
39665;DHT22;26679;50.872;4.332;2023-05-14T04:46:00;15.20;99.90
39665;DHT22;26679;50.872;4.332;2023-05-14T04:48:26;15.10;99.90
39665;DHT22;26679;50.872;4.332;2023-05-14T04:50:52;15.00;99.90
39665;DHT22;26679;50.872;4.332;2023-05-14T04:53:17;15.00;99.90
39665;DHT22;26679;50.872;4.332;2023-05-14T04:55:43;15.10;99.90
39665;DHT22;26679;50.872;4.332;2023-05-14T04:58:08;15.00;99.90
39665;DHT22;26679;50.872;4.332;2023-05-14T05:00:33;15.10;99.90
39665;DHT22;26679;50.872;4.332;2023-05-14T05:02:59;15.10;99.90
39665;DHT22;26679;50.872;4.332;2023-05-14T05:05:24;15.20;99.90
39665;DHT22;26679;50.872;4.332;2023-05-14T05:07:50;15.10;99.90
39665;DHT22;26679;50.872;4.332;2023-05-14T05:10:16;15.00;99.90
39665;DHT22;26679;50.872;4.332;2023-05-14T05:12:41;15.00;99.90
39665;DHT22;26679;50.872;4.332;2023-05-14T05:15:07;14.90;99.90
39665;DHT22;26679;50.872;4.332;2023-05-14T05:17:34;14.90;99.90
39665;DHT22;26679;50.872;4.332;2023-05-14T05:19:59;14.90;99.90
39665;DHT22;26679;50.872;4.332;2023-05-14T05:22:25;14.90;99.90
39665;DHT22;26679;50.872;4.332;2023-05-14T05:24:50;14.90;99.90
39665;DHT22;26679;50.872;4.332;2023-05-14T05:27:16;14.90;99.90
39665;DHT22;26679;50.872;4.332;2023-05-14T05:29:42;14.90;99.90
39665;DHT22;26679;50.872;4.332;2023-05-14T05:32:08;15.10;99.90
39665;DHT22;26679;50.872;4.332;2023-05-14T05:34:33;15.00;99.90
39665;DHT22;26679;50.872;4.332;2023-05-14T05:36:59;15.10;99.90
39665;DHT22;26679;50.872;4.332;2023-05-14T05:39:24;15.20;99.90
39665;DHT22;26679;50.872;4.332;2023-05-14T05:41:50;15.20;99.90
39665;DHT22;26679;50.872;4.332;2023-05-14T05:44:15;15.20;99.90
39665;DHT22;26679;50.872;4.332;2023-05-14T05:46:40;15.10;99.90
39665;DHT22;26679;50.872;4.332;2023-05-14T05:49:06;15.20;99.90
39665;DHT22;26679;50.872;4.332;2023-05-14T05:51:31;15.10;99.90
39665;DHT22;26679;50.872;4.332;2023-05-14T05:53:57;15.00;99.90
39665;DHT22;26679;50.872;4.332;2023-05-14T05:56:23;15.00;99.90
39665;DHT22;26679;50.872;4.332;2023-05-14T05:58:48;15.20;99.90
39665;DHT22;26679;50.872;4.332;2023-05-14T06:01:14;15.20;99.90
39665;DHT22;26679;50.872;4.332;2023-05-14T06:03:39;15.20;99.90
39665;DHT22;26679;50.872;4.332;2023-05-14T06:06:05;15.10;99.90
39665;DHT22;26679;50.872;4.332;2023-05-14T06:08:30;15.10;99.90
39665;DHT22;26679;50.872;4.332;2023-05-14T06:10:56;15.10;99.90
39665;DHT22;26679;50.872;4.332;2023-05-14T06:13:21;15.10;99.90
39665;DHT22;26679;50.872;4.332;2023-05-14T06:15:47;14.90;99.90
39665;DHT22;26679;50.872;4.332;2023-05-14T06:18:12;14.80;99.90
39665;DHT22;26679;50.872;4.332;2023-05-14T06:20:38;14.90;99.90
39665;DHT22;26679;50.872;4.332;2023-05-14T06:23:05;15.00;99.90
39665;DHT22;26679;50.872;4.332;2023-05-14T06:25:32;15.00;99.90
39665;DHT22;26679;50.872;4.332;2023-05-14T06:27:57;15.00;99.90
39665;DHT22;26679;50.872;4.332;2023-05-14T06:30:23;15.00;99.90
39665;DHT22;26679;50.872;4.332;2023-05-14T06:32:48;14.90;99.90
39665;DHT22;26679;50.872;4.332;2023-05-14T06:35:14;15.20;99.90
39665;DHT22;26679;50.872;4.332;2023-05-14T06:37:39;15.30;99.90
39665;DHT22;26679;50.872;4.332;2023-05-14T06:40:05;15.20;99.90
39665;DHT22;26679;50.872;4.332;2023-05-14T06:42:31;15.30;99.90
39665;DHT22;26679;50.872;4.332;2023-05-14T06:44:56;15.40;99.90
39665;DHT22;26679;50.872;4.332;2023-05-14T06:47:22;15.60;99.90
39665;DHT22;26679;50.872;4.332;2023-05-14T06:49:47;15.50;99.90
39665;DHT22;26679;50.872;4.332;2023-05-14T06:52:13;15.40;99.90
39665;DHT22;26679;50.872;4.332;2023-05-14T06:54:38;15.30;99.90
39665;DHT22;26679;50.872;4.332;2023-05-14T06:57:04;15.30;99.90
39665;DHT22;26679;50.872;4.332;2023-05-14T06:59:29;15.30;99.90
39665;DHT22;26679;50.872;4.332;2023-05-14T07:01:55;15.20;99.90
39665;DHT22;26679;50.872;4.332;2023-05-14T07:04:20;15.30;99.90
39665;DHT22;26679;50.872;4.332;2023-05-14T07:06:46;15.10;99.90
39665;DHT22;26679;50.872;4.332;2023-05-14T07:09:11;15.00;99.90
39665;DHT22;26679;50.872;4.332;2023-05-14T07:11:37;15.10;99.90
39665;DHT22;26679;50.872;4.332;2023-05-14T07:14:03;15.20;99.90
39665;DHT22;26679;50.872;4.332;2023-05-14T07:16:28;15.20;99.90
39665;DHT22;26679;50.872;4.332;2023-05-14T07:18:54;15.20;99.90
39665;DHT22;26679;50.872;4.332;2023-05-14T07:21:19;15.20;99.90
39665;DHT22;26679;50.872;4.332;2023-05-14T07:23:45;15.10;99.90
39665;DHT22;26679;50.872;4.332;2023-05-14T07:26:10;15.20;99.90
39665;DHT22;26679;50.872;4.332;2023-05-14T07:28:36;15.30;99.90
39665;DHT22;26679;50.872;4.332;2023-05-14T07:31:01;15.50;99.90
39665;DHT22;26679;50.872;4.332;2023-05-14T07:33:29;15.50;99.90
39665;DHT22;26679;50.872;4.332;2023-05-14T07:35:54;15.40;99.90
39665;DHT22;26679;50.872;4.332;2023-05-14T07:38:20;15.50;99.90
39665;DHT22;26679;50.872;4.332;2023-05-14T07:40:45;15.60;99.90
39665;DHT22;26679;50.872;4.332;2023-05-14T07:43:11;15.70;99.90
39665;DHT22;26679;50.872;4.332;2023-05-14T07:45:37;15.90;99.90
39665;DHT22;26679;50.872;4.332;2023-05-14T07:48:03;15.80;99.90
39665;DHT22;26679;50.872;4.332;2023-05-14T07:50:29;15.80;99.90
39665;DHT22;26679;50.872;4.332;2023-05-14T07:52:56;15.90;99.90
39665;DHT22;26679;50.872;4.332;2023-05-14T07:55:22;15.90;99.90
39665;DHT22;26679;50.872;4.332;2023-05-14T07:57:47;15.90;99.90
39665;DHT22;26679;50.872;4.332;2023-05-14T08:00:13;15.90;99.90
39665;DHT22;26679;50.872;4.332;2023-05-14T08:02:39;15.90;99.90
39665;DHT22;26679;50.872;4.332;2023-05-14T08:05:04;16.00;99.90
39665;DHT22;26679;50.872;4.332;2023-05-14T08:07:30;15.90;99.90
39665;DHT22;26679;50.872;4.332;2023-05-14T08:09:56;15.90;99.90
39665;DHT22;26679;50.872;4.332;2023-05-14T08:12:21;15.90;99.90
39665;DHT22;26679;50.872;4.332;2023-05-14T08:14:47;15.90;99.90
39665;DHT22;26679;50.872;4.332;2023-05-14T08:17:12;16.00;99.90
39665;DHT22;26679;50.872;4.332;2023-05-14T08:19:38;16.00;99.90
39665;DHT22;26679;50.872;4.332;2023-05-14T08:22:04;16.00;99.90
39665;DHT22;26679;50.872;4.332;2023-05-14T08:24:29;16.10;99.90
39665;DHT22;26679;50.872;4.332;2023-05-14T08:26:55;16.10;99.90
39665;DHT22;26679;50.872;4.332;2023-05-14T08:29:21;16.20;99.90
39665;DHT22;26679;50.872;4.332;2023-05-14T08:31:48;16.30;99.90
39665;DHT22;26679;50.872;4.332;2023-05-14T08:34:13;16.70;99.90
39665;DHT22;26679;50.872;4.332;2023-05-14T08:36:39;16.80;99.90
39665;DHT22;26679;50.872;4.332;2023-05-14T08:39:04;16.90;99.90
39665;DHT22;26679;50.872;4.332;2023-05-14T08:41:31;16.90;99.90
39665;DHT22;26679;50.872;4.332;2023-05-14T08:46:33;17.10;99.90
39665;DHT22;26679;50.872;4.332;2023-05-14T08:51:37;17.00;99.90
39665;DHT22;26679;50.872;4.332;2023-05-14T08:54:02;17.10;99.90
39665;DHT22;26679;50.872;4.332;2023-05-14T08:56:30;17.30;99.90
39665;DHT22;26679;50.872;4.332;2023-05-14T08:58:56;17.40;99.90
39665;DHT22;26679;50.872;4.332;2023-05-14T09:01:22;17.30;99.90
39665;DHT22;26679;50.872;4.332;2023-05-14T09:03:47;17.30;99.90
39665;DHT22;26679;50.872;4.332;2023-05-14T09:06:13;17.10;99.90
39665;DHT22;26679;50.872;4.332;2023-05-14T09:08:39;17.40;99.90
39665;DHT22;26679;50.872;4.332;2023-05-14T09:11:07;17.60;99.90
39665;DHT22;26679;50.872;4.332;2023-05-14T09:13:37;17.70;99.90
39665;DHT22;26679;50.872;4.332;2023-05-14T09:16:03;17.50;99.90
39665;DHT22;26679;50.872;4.332;2023-05-14T09:18:28;17.60;99.90
39665;DHT22;26679;50.872;4.332;2023-05-14T09:20:54;17.70;99.90
39665;DHT22;26679;50.872;4.332;2023-05-14T09:23:20;17.80;99.90
39665;DHT22;26679;50.872;4.332;2023-05-14T09:25:46;17.90;99.90
39665;DHT22;26679;50.872;4.332;2023-05-14T09:28:15;18.10;99.90
39665;DHT22;26679;50.872;4.332;2023-05-14T09:30:41;18.30;99.90
39665;DHT22;26679;50.872;4.332;2023-05-14T09:33:06;18.50;99.90
39665;DHT22;26679;50.872;4.332;2023-05-14T09:35:36;18.60;99.90
39665;DHT22;26679;50.872;4.332;2023-05-14T09:38:04;18.90;99.90
39665;DHT22;26679;50.872;4.332;2023-05-14T09:40:30;19.20;99.90
39665;DHT22;26679;50.872;4.332;2023-05-14T09:42:55;20.10;99.90
39665;DHT22;26679;50.872;4.332;2023-05-14T09:45:21;20.60;99.90
39665;DHT22;26679;50.872;4.332;2023-05-14T09:47:47;21.50;99.90
39665;DHT22;26679;50.872;4.332;2023-05-14T09:50:12;22.50;99.90
39665;DHT22;26679;50.872;4.332;2023-05-14T09:52:38;23.50;98.10
39665;DHT22;26679;50.872;4.332;2023-05-14T09:55:04;23.10;97.30
39665;DHT22;26679;50.872;4.332;2023-05-14T09:57:30;22.60;97.80
39665;DHT22;26679;50.872;4.332;2023-05-14T09:59:56;22.20;97.90
39665;DHT22;26679;50.872;4.332;2023-05-14T10:02:23;21.60;98.30
39665;DHT22;26679;50.872;4.332;2023-05-14T10:04:49;21.40;99.00
39665;DHT22;26679;50.872;4.332;2023-05-14T10:07:16;21.50;98.90
39665;DHT22;26679;50.872;4.332;2023-05-14T10:09:43;22.20;98.80
39665;DHT22;26679;50.872;4.332;2023-05-14T10:12:10;22.50;97.70
39665;DHT22;26679;50.872;4.332;2023-05-14T10:14:40;22.70;97.50
39665;DHT22;26679;50.872;4.332;2023-05-14T10:17:07;23.30;97.20
39665;DHT22;26679;50.872;4.332;2023-05-14T10:19:42;23.80;96.70
39665;DHT22;26679;50.872;4.332;2023-05-14T10:22:11;23.80;95.80
39665;DHT22;26679;50.872;4.332;2023-05-14T10:24:39;24.10;96.10
39665;DHT22;26679;50.872;4.332;2023-05-14T10:27:05;25.00;95.10
39665;DHT22;26679;50.872;4.332;2023-05-14T10:29:32;24.50;95.20
39665;DHT22;26679;50.872;4.332;2023-05-14T10:31:58;25.00;95.00
39665;DHT22;26679;50.872;4.332;2023-05-14T10:34:34;25.40;94.10
39665;DHT22;26679;50.872;4.332;2023-05-14T10:37:05;26.00;93.70
39665;DHT22;26679;50.872;4.332;2023-05-14T10:42:11;26.10;93.00
39665;DHT22;26679;50.872;4.332;2023-05-14T10:44:40;26.70;92.50
39665;DHT22;26679;50.872;4.332;2023-05-14T10:47:09;26.50;92.40
39665;DHT22;26679;50.872;4.332;2023-05-14T10:49:34;26.80;92.60
39665;DHT22;26679;50.872;4.332;2023-05-14T10:52:00;26.10;92.20
39665;DHT22;26679;50.872;4.332;2023-05-14T10:54:26;25.00;93.40
39665;DHT22;26679;50.872;4.332;2023-05-14T10:56:52;25.80;93.30
39665;DHT22;26679;50.872;4.332;2023-05-14T10:59:18;26.40;92.80
39665;DHT22;26679;50.872;4.332;2023-05-14T11:01:44;26.60;92.50
39665;DHT22;26679;50.872;4.332;2023-05-14T11:04:21;27.30;91.80
39665;DHT22;26679;50.872;4.332;2023-05-14T11:06:47;27.60;91.40
39665;DHT22;26679;50.872;4.332;2023-05-14T11:09:13;28.00;91.50
39665;DHT22;26679;50.872;4.332;2023-05-14T11:11:41;28.70;90.90
39665;DHT22;26679;50.872;4.332;2023-05-14T11:14:07;28.50;90.60
39665;DHT22;26679;50.872;4.332;2023-05-14T11:16:33;28.10;90.60
39665;DHT22;26679;50.872;4.332;2023-05-14T11:18:59;28.40;90.30
39665;DHT22;26679;50.872;4.332;2023-05-14T11:21:26;28.30;90.10
39665;DHT22;26679;50.872;4.332;2023-05-14T11:23:53;28.30;90.20
39665;DHT22;26679;50.872;4.332;2023-05-14T11:26:18;28.40;90.00
39665;DHT22;26679;50.872;4.332;2023-05-14T11:28:44;28.60;89.40
39665;DHT22;26679;50.872;4.332;2023-05-14T11:31:10;28.80;89.60
39665;DHT22;26679;50.872;4.332;2023-05-14T11:33:36;29.20;88.80
39665;DHT22;26679;50.872;4.332;2023-05-14T11:36:02;29.60;88.90
39665;DHT22;26679;50.872;4.332;2023-05-14T11:38:28;30.10;87.30
39665;DHT22;26679;50.872;4.332;2023-05-14T11:40:54;30.30;86.90
39665;DHT22;26679;50.872;4.332;2023-05-14T11:43:20;30.40;86.20
39665;DHT22;26679;50.872;4.332;2023-05-14T11:45:48;30.60;86.10
39665;DHT22;26679;50.872;4.332;2023-05-14T11:48:14;31.00;85.70
39665;DHT22;26679;50.872;4.332;2023-05-14T11:50:39;30.90;85.30
39665;DHT22;26679;50.872;4.332;2023-05-14T11:53:05;31.30;84.80
39665;DHT22;26679;50.872;4.332;2023-05-14T11:55:33;31.60;84.80
39665;DHT22;26679;50.872;4.332;2023-05-14T11:57:58;31.40;84.00
39665;DHT22;26679;50.872;4.332;2023-05-14T12:00:24;30.80;85.00
39665;DHT22;26679;50.872;4.332;2023-05-14T12:02:50;30.90;84.90
39665;DHT22;26679;50.872;4.332;2023-05-14T12:05:17;30.80;84.50
39665;DHT22;26679;50.872;4.332;2023-05-14T12:07:45;30.40;84.70
39665;DHT22;26679;50.872;4.332;2023-05-14T12:10:11;30.60;84.70
39665;DHT22;26679;50.872;4.332;2023-05-14T12:12:37;31.10;84.70
39665;DHT22;26679;50.872;4.332;2023-05-14T12:15:12;31.00;84.20
39665;DHT22;26679;50.872;4.332;2023-05-14T12:17:50;31.20;84.00
39665;DHT22;26679;50.872;4.332;2023-05-14T12:20:16;31.50;83.20
39665;DHT22;26679;50.872;4.332;2023-05-14T12:22:41;31.50;82.80
39665;DHT22;26679;50.872;4.332;2023-05-14T12:25:10;31.40;82.80
39665;DHT22;26679;50.872;4.332;2023-05-14T12:27:39;31.40;81.80
39665;DHT22;26679;50.872;4.332;2023-05-14T12:30:05;31.50;82.70
39665;DHT22;26679;50.872;4.332;2023-05-14T12:32:31;30.90;82.50
39665;DHT22;26679;50.872;4.332;2023-05-14T12:34:57;31.60;82.50
39665;DHT22;26679;50.872;4.332;2023-05-14T12:37:23;31.50;82.60
39665;DHT22;26679;50.872;4.332;2023-05-14T12:39:48;31.50;83.00
39665;DHT22;26679;50.872;4.332;2023-05-14T12:42:14;32.20;82.10
39665;DHT22;26679;50.872;4.332;2023-05-14T12:44:40;31.50;82.70
39665;DHT22;26679;50.872;4.332;2023-05-14T12:47:06;31.90;82.40
39665;DHT22;26679;50.872;4.332;2023-05-14T12:49:31;31.90;82.40
39665;DHT22;26679;50.872;4.332;2023-05-14T12:51:57;32.20;82.40
39665;DHT22;26679;50.872;4.332;2023-05-14T12:54:23;32.00;81.90
39665;DHT22;26679;50.872;4.332;2023-05-14T12:56:48;32.20;81.90
39665;DHT22;26679;50.872;4.332;2023-05-14T12:59:14;31.90;81.80
39665;DHT22;26679;50.872;4.332;2023-05-14T13:01:40;31.80;82.70
39665;DHT22;26679;50.872;4.332;2023-05-14T13:04:06;31.60;82.10
39665;DHT22;26679;50.872;4.332;2023-05-14T13:06:32;31.90;82.60
39665;DHT22;26679;50.872;4.332;2023-05-14T13:08:58;32.00;81.90
39665;DHT22;26679;50.872;4.332;2023-05-14T13:11:25;32.10;81.80
39665;DHT22;26679;50.872;4.332;2023-05-14T13:13:53;32.50;81.40
39665;DHT22;26679;50.872;4.332;2023-05-14T13:16:19;32.40;80.60
39665;DHT22;26679;50.872;4.332;2023-05-14T13:18:44;32.60;80.90
39665;DHT22;26679;50.872;4.332;2023-05-14T13:21:10;32.80;80.40
39665;DHT22;26679;50.872;4.332;2023-05-14T13:23:37;32.90;80.90
39665;DHT22;26679;50.872;4.332;2023-05-14T13:26:02;33.10;80.40
39665;DHT22;26679;50.872;4.332;2023-05-14T13:28:28;33.20;79.40
39665;DHT22;26679;50.872;4.332;2023-05-14T13:33:31;33.30;79.20
39665;DHT22;26679;50.872;4.332;2023-05-14T13:35:56;33.30;78.00
39665;DHT22;26679;50.872;4.332;2023-05-14T13:38:23;33.50;77.80
39665;DHT22;26679;50.872;4.332;2023-05-14T13:40:48;33.60;77.60
39665;DHT22;26679;50.872;4.332;2023-05-14T13:43:14;33.80;77.70
39665;DHT22;26679;50.872;4.332;2023-05-14T13:45:41;34.00;78.50
39665;DHT22;26679;50.872;4.332;2023-05-14T13:48:06;33.50;77.60
39665;DHT22;26679;50.872;4.332;2023-05-14T13:50:32;33.00;78.20
39665;DHT22;26679;50.872;4.332;2023-05-14T13:52:57;32.10;79.10
39665;DHT22;26679;50.872;4.332;2023-05-14T13:55:23;31.90;79.20
39665;DHT22;26679;50.872;4.332;2023-05-14T13:57:48;32.10;79.50
39665;DHT22;26679;50.872;4.332;2023-05-14T14:00:14;32.20;78.90
39665;DHT22;26679;50.872;4.332;2023-05-14T14:02:40;31.80;78.80
39665;DHT22;26679;50.872;4.332;2023-05-14T14:05:05;31.30;79.20
39665;DHT22;26679;50.872;4.332;2023-05-14T14:07:32;31.00;80.00
39665;DHT22;26679;50.872;4.332;2023-05-14T14:09:57;31.10;79.80
39665;DHT22;26679;50.872;4.332;2023-05-14T14:12:25;30.70;79.90
39665;DHT22;26679;50.872;4.332;2023-05-14T14:14:51;30.70;79.90
39665;DHT22;26679;50.872;4.332;2023-05-14T14:17:17;31.00;80.40
39665;DHT22;26679;50.872;4.332;2023-05-14T14:19:42;31.30;79.90
39665;DHT22;26679;50.872;4.332;2023-05-14T14:22:08;31.10;80.20
39665;DHT22;26679;50.872;4.332;2023-05-14T14:24:33;31.20;79.20
39665;DHT22;26679;50.872;4.332;2023-05-14T14:26:59;30.70;80.20
39665;DHT22;26679;50.872;4.332;2023-05-14T14:29:26;30.40;81.00
39665;DHT22;26679;50.872;4.332;2023-05-14T14:31:53;29.70;81.70
39665;DHT22;26679;50.872;4.332;2023-05-14T14:34:18;29.20;82.00
39665;DHT22;26679;50.872;4.332;2023-05-14T14:36:44;29.10;82.40
39665;DHT22;26679;50.872;4.332;2023-05-14T14:39:09;29.10;82.70
39665;DHT22;26679;50.872;4.332;2023-05-14T14:41:35;29.40;82.50
39665;DHT22;26679;50.872;4.332;2023-05-14T14:44:01;29.00;82.00
39665;DHT22;26679;50.872;4.332;2023-05-14T14:46:27;28.70;82.10
39665;DHT22;26679;50.872;4.332;2023-05-14T14:48:52;28.50;82.40
39665;DHT22;26679;50.872;4.332;2023-05-14T14:51:18;28.50;81.50
39665;DHT22;26679;50.872;4.332;2023-05-14T14:53:44;28.60;81.90
39665;DHT22;26679;50.872;4.332;2023-05-14T14:56:09;28.10;83.30
39665;DHT22;26679;50.872;4.332;2023-05-14T14:58:35;27.90;83.70
39665;DHT22;26679;50.872;4.332;2023-05-14T15:01:00;28.10;83.80
39665;DHT22;26679;50.872;4.332;2023-05-14T15:03:26;28.20;83.60
39665;DHT22;26679;50.872;4.332;2023-05-14T15:05:52;28.20;83.40
39665;DHT22;26679;50.872;4.332;2023-05-14T15:08:17;28.10;83.20
39665;DHT22;26679;50.872;4.332;2023-05-14T15:10:43;27.70;83.80
39665;DHT22;26679;50.872;4.332;2023-05-14T15:13:09;27.40;84.90
39665;DHT22;26679;50.872;4.332;2023-05-14T15:15:35;27.30;85.70
39665;DHT22;26679;50.872;4.332;2023-05-14T15:18:02;27.10;85.90
39665;DHT22;26679;50.872;4.332;2023-05-14T15:20:27;26.70;86.40
39665;DHT22;26679;50.872;4.332;2023-05-14T15:22:53;26.80;86.80
39665;DHT22;26679;50.872;4.332;2023-05-14T15:25:19;26.60;86.80
39665;DHT22;26679;50.872;4.332;2023-05-14T15:27:45;26.20;87.50
39665;DHT22;26679;50.872;4.332;2023-05-14T15:30:11;26.00;88.10
39665;DHT22;26679;50.872;4.332;2023-05-14T15:32:37;26.10;87.70
39665;DHT22;26679;50.872;4.332;2023-05-14T15:35:02;25.80;88.10
39665;DHT22;26679;50.872;4.332;2023-05-14T15:37:34;25.90;87.80
39665;DHT22;26679;50.872;4.332;2023-05-14T15:40:00;25.90;87.70
39665;DHT22;26679;50.872;4.332;2023-05-14T15:42:25;25.90;87.80
39665;DHT22;26679;50.872;4.332;2023-05-14T15:44:51;25.90;88.20